createdAt,value
2023-05-20T00:02:41.303Z,1.50
2023-05-20T00:05:43.920Z,1.90
2023-05-20T00:08:46.420Z,1.90
2023-05-20T00:11:48.708Z,1.42
2023-05-20T00:14:51.152Z,1.67
2023-05-20T00:17:53.486Z,1.35
2023-05-20T00:20:55.834Z,2.10
2023-05-20T00:23:58.416Z,2.22
2023-05-20T00:27:00.809Z,2.05
2023-05-20T00:30:03.278Z,2.00
2023-05-20T00:33:05.645Z,2.63
2023-05-20T00:36:08.788Z,2.22
2023-05-20T00:39:11.110Z,2.35
2023-05-20T00:42:20.618Z,2.35
2023-05-20T00:45:27.937Z,1.80
2023-05-20T00:48:40.010Z,1.58
2023-05-20T00:51:42.364Z,1.38
2023-05-20T00:54:45.892Z,1.27
2023-05-20T00:57:53.058Z,2.00
2023-05-20T01:00:55.774Z,1.80
2023-05-20T01:03:59.286Z,1.50
2023-05-20T01:07:04.841Z,1.73
2023-05-20T01:10:08.033Z,1.50
2023-05-20T01:13:15.819Z,1.48
2023-05-20T01:16:19.273Z,1.37
2023-05-20T01:19:45.013Z,1.42
2023-05-20T01:22:48.407Z,1.42
2023-05-20T01:25:50.766Z,1.10
2023-05-20T01:28:53.370Z,1.38
2023-05-20T01:31:58.240Z,0.70
2023-05-20T01:35:01.725Z,1.27
2023-05-20T01:38:08.464Z,1.10
2023-05-20T01:41:12.416Z,0.85
2023-05-20T01:44:14.714Z,0.70
2023-05-20T01:47:17.004Z,0.57
2023-05-20T01:50:19.502Z,0.93
2023-05-20T01:53:21.860Z,1.23
2023-05-20T01:56:24.187Z,1.23
2023-05-20T01:59:26.598Z,1.13
2023-05-20T02:02:28.901Z,1.30
2023-05-20T02:05:31.348Z,1.20
2023-05-20T02:08:33.891Z,0.90
2023-05-20T02:11:36.375Z,1.05
2023-05-20T02:14:38.626Z,0.77
2023-05-20T02:17:43.786Z,1.07
2023-05-20T02:20:46.743Z,0.93
2023-05-20T02:23:49.960Z,0.80
2023-05-20T02:26:54.492Z,0.93
2023-05-20T02:29:57.343Z,0.70
2023-05-20T02:33:00.043Z,0.60
2023-05-20T02:36:02.536Z,0.75
2023-05-20T02:39:04.890Z,0.82
2023-05-20T02:42:07.219Z,0.93
2023-05-20T02:45:09.851Z,0.60
2023-05-20T02:48:12.191Z,1.00
2023-05-20T02:51:14.569Z,0.82
2023-05-20T02:54:16.911Z,1.15
2023-05-20T02:57:19.225Z,1.15
2023-05-20T03:00:23.333Z,2.00
2023-05-20T03:03:27.234Z,1.13
2023-05-20T03:06:32.443Z,1.05
2023-05-20T03:09:34.831Z,1.30
2023-05-20T03:12:37.192Z,0.43
2023-05-20T03:15:39.610Z,0.80
2023-05-20T03:18:42.094Z,0.80
2023-05-20T03:21:44.453Z,1.00
2023-05-20T03:24:46.765Z,0.82
2023-05-20T03:27:49.204Z,0.82
2023-05-20T03:30:51.835Z,0.70
2023-05-20T03:33:54.207Z,0.60
2023-05-20T03:36:57.497Z,0.70
2023-05-20T03:40:00.013Z,0.93
2023-05-20T03:43:02.435Z,1.00
2023-05-20T03:46:05.706Z,0.85
2023-05-20T03:49:08.556Z,0.70
2023-05-20T03:52:10.860Z,1.00
2023-05-20T03:55:13.334Z,0.70
2023-05-20T03:58:15.801Z,1.10
2023-05-20T04:01:18.409Z,1.50
2023-05-20T04:04:20.846Z,1.40
2023-05-20T04:07:23.920Z,1.45
2023-05-20T04:10:26.627Z,1.33
2023-05-20T04:13:29.118Z,1.63
2023-05-20T04:16:31.453Z,1.58
2023-05-20T04:19:34.928Z,2.10
2023-05-20T04:22:39.546Z,2.40
2023-05-20T04:25:42.365Z,1.50
2023-05-20T04:28:44.685Z,2.33
2023-05-20T04:31:47.520Z,1.95
2023-05-20T04:34:50.686Z,2.57
2023-05-20T04:37:55.573Z,2.00
2023-05-20T04:41:02.277Z,1.80
2023-05-20T04:44:04.768Z,2.00
2023-05-20T04:47:09.715Z,1.23
2023-05-20T04:50:13.752Z,1.40
2023-05-20T04:53:17.571Z,1.90
2023-05-20T04:56:19.906Z,2.05
2023-05-20T04:59:22.506Z,2.15
2023-05-20T05:02:25.494Z,2.25
2023-05-20T05:05:29.402Z,2.60
2023-05-20T05:08:31.759Z,2.75
2023-05-20T05:11:34.912Z,2.85
2023-05-20T05:14:37.763Z,2.25
2023-05-20T05:17:40.147Z,2.47
2023-05-20T05:20:42.633Z,2.50
2023-05-20T05:23:45.116Z,2.67
2023-05-20T05:26:47.895Z,2.65
2023-05-20T05:29:50.234Z,1.98
2023-05-20T05:32:53.286Z,2.80
2023-05-20T05:35:59.066Z,2.77
2023-05-20T05:39:01.842Z,2.53
2023-05-20T05:42:05.067Z,2.47
2023-05-20T05:45:08.833Z,3.58
2023-05-20T05:48:11.825Z,2.80
2023-05-20T05:51:15.169Z,2.20
2023-05-20T05:54:17.622Z,2.78
2023-05-20T05:57:20.424Z,2.60
2023-05-20T06:00:23.536Z,2.90
2023-05-20T06:03:26.016Z,2.38
2023-05-20T06:06:28.963Z,2.60
2023-05-20T06:09:31.492Z,2.67
2023-05-20T06:12:34.016Z,3.17
2023-05-20T06:15:37.060Z,2.67
2023-05-20T06:18:39.665Z,2.70
2023-05-20T06:21:42.084Z,3.20
2023-05-20T06:24:44.461Z,2.65
2023-05-20T06:27:48.089Z,3.10
2023-05-20T06:30:57.500Z,2.58
2023-05-20T06:34:01.555Z,3.40
2023-05-20T06:37:04.104Z,2.73
2023-05-20T06:40:08.809Z,2.45
2023-05-20T06:43:12.019Z,2.17
2023-05-20T06:46:37.292Z,3.20
2023-05-20T06:49:45.048Z,3.03
2023-05-20T06:52:49.648Z,2.90
2023-05-20T06:55:55.874Z,3.05
2023-05-20T06:58:58.330Z,3.00
2023-05-20T07:02:02.318Z,3.03
2023-05-20T07:05:04.862Z,2.63
2023-05-20T07:08:07.376Z,2.63
2023-05-20T07:11:09.914Z,2.67
2023-05-20T07:14:12.473Z,2.80
2023-05-20T07:17:16.079Z,2.70
2023-05-20T07:20:20.418Z,2.40
2023-05-20T07:23:23.900Z,2.03
2023-05-20T07:26:28.708Z,2.22
2023-05-20T07:29:31.445Z,2.08
2023-05-20T07:32:33.906Z,1.98
2023-05-20T07:35:36.736Z,2.20
2023-05-20T07:38:41.002Z,2.67
2023-05-20T07:41:44.489Z,1.90
2023-05-20T07:44:48.010Z,2.15
2023-05-20T07:47:50.361Z,1.95
2023-05-20T07:50:53.026Z,1.92
2023-05-20T07:53:55.584Z,2.00
2023-05-20T07:56:58.205Z,2.03
2023-05-20T08:00:00.764Z,2.45
2023-05-20T08:03:03.487Z,1.80
2023-05-20T08:06:15.867Z,1.92
2023-05-20T08:09:19.612Z,2.00
2023-05-20T08:12:26.128Z,1.80
2023-05-20T08:15:28.580Z,2.05
2023-05-20T08:18:33.773Z,1.92
2023-05-20T08:21:36.126Z,1.98
2023-05-20T08:24:38.609Z,1.80
2023-05-20T08:27:41.492Z,1.60
2023-05-20T08:30:43.996Z,1.83
2023-05-20T08:33:46.590Z,1.90
2023-05-20T08:36:49.019Z,2.17
2023-05-20T08:39:51.308Z,1.87
2023-05-20T08:42:55.008Z,1.80
2023-05-20T08:45:58.469Z,1.98
2023-05-20T08:49:02.861Z,2.08
2023-05-20T08:52:06.553Z,1.92
2023-05-20T08:55:11.545Z,1.90
2023-05-20T08:58:15.827Z,2.05
2023-05-20T09:01:18.169Z,1.95
2023-05-20T09:04:20.769Z,2.20
2023-05-20T09:07:29.150Z,2.00
2023-05-20T09:10:31.550Z,2.37
2023-05-20T09:13:34.200Z,2.10
2023-05-20T09:16:36.577Z,2.25
2023-05-20T09:19:39.152Z,1.85
2023-05-20T09:22:41.665Z,1.95
2023-05-20T09:25:44.432Z,2.00
2023-05-20T09:28:47.151Z,1.80
2023-05-20T09:31:50.263Z,2.17
2023-05-20T09:34:52.750Z,2.38
2023-05-20T09:37:56.904Z,2.10
2023-05-20T09:41:08.990Z,2.27
2023-05-20T09:44:12.370Z,2.30
2023-05-20T09:47:21.051Z,2.10
2023-05-20T09:50:24.700Z,2.20
2023-05-20T09:53:28.425Z,2.50
2023-05-20T09:56:31.693Z,2.40
2023-05-20T09:59:37.091Z,2.10
2023-05-20T10:02:43.488Z,1.73
2023-05-20T10:05:52.393Z,2.33
2023-05-20T10:09:51.912Z,2.33
2023-05-20T10:13:18.618Z,1.90
2023-05-20T10:16:53.259Z,2.20
2023-05-20T10:19:59.938Z,2.15
2023-05-20T10:23:02.258Z,2.33
2023-05-20T10:26:07.076Z,2.05
2023-05-20T10:29:20.073Z,2.10
2023-05-20T10:32:25.230Z,2.10
2023-05-20T10:35:27.934Z,2.10
2023-05-20T10:38:30.235Z,2.03
2023-05-20T10:41:34.843Z,2.13
2023-05-20T10:44:47.640Z,2.17
2023-05-20T10:47:57.547Z,1.98
2023-05-20T10:51:06.505Z,2.58
2023-05-20T10:54:09.833Z,2.45
2023-05-20T10:57:12.349Z,2.10
2023-05-20T11:00:16.371Z,2.23
2023-05-20T11:03:20.383Z,2.15
2023-05-20T11:06:28.501Z,2.42
2023-05-20T11:09:32.030Z,2.00
2023-05-20T11:12:34.387Z,2.42
2023-05-20T11:15:36.912Z,2.17
2023-05-20T11:18:39.180Z,2.38
2023-05-20T11:21:48.227Z,2.28
2023-05-20T11:24:50.752Z,2.20
2023-05-20T11:27:57.134Z,2.03
2023-05-20T11:30:59.926Z,2.53
2023-05-20T11:34:02.509Z,2.03
2023-05-20T11:37:09.416Z,2.05
2023-05-20T11:40:13.333Z,2.80
2023-05-20T11:43:15.707Z,2.15
2023-05-20T11:46:21.253Z,2.53
2023-05-20T11:49:23.594Z,2.38
2023-05-20T11:52:29.122Z,2.40
2023-05-20T11:55:35.212Z,3.17
2023-05-20T11:58:37.541Z,2.50
2023-05-20T12:01:43.648Z,2.83
2023-05-20T12:04:46.429Z,2.80
2023-05-20T12:07:49.503Z,3.10
2023-05-20T12:10:51.777Z,2.80
2023-05-20T12:13:54.046Z,2.55
2023-05-20T12:16:56.919Z,2.50
2023-05-20T12:19:59.296Z,2.53
2023-05-20T12:23:01.817Z,2.35
2023-05-20T12:26:04.202Z,2.50
2023-05-20T12:29:06.989Z,2.70
2023-05-20T12:32:09.360Z,2.73
2023-05-20T12:35:11.882Z,2.40
2023-05-20T12:38:14.203Z,2.35
2023-05-20T12:41:16.503Z,2.35
2023-05-20T12:44:18.876Z,2.70
2023-05-20T12:47:21.447Z,2.03
2023-05-20T12:50:24.772Z,2.50
2023-05-20T12:53:27.111Z,2.25
2023-05-20T12:56:29.461Z,2.60
2023-05-20T12:59:31.806Z,2.38
2023-05-20T13:02:34.364Z,2.20
2023-05-20T13:05:36.728Z,2.50
2023-05-20T13:08:39.034Z,2.47
2023-05-20T13:11:41.307Z,2.58
2023-05-20T13:14:43.581Z,2.45
2023-05-20T13:17:46.043Z,2.73
2023-05-20T13:20:48.382Z,3.00
2023-05-20T13:23:50.665Z,2.88
2023-05-20T13:26:53.008Z,2.13
2023-05-20T13:29:55.348Z,2.67
2023-05-20T13:32:57.728Z,2.40
2023-05-20T13:36:00.133Z,2.53
2023-05-20T13:39:02.429Z,2.50
2023-05-20T13:42:04.850Z,2.10
2023-05-20T13:45:07.858Z,2.50
2023-05-20T13:48:10.276Z,2.17
2023-05-20T13:51:12.582Z,2.10
2023-05-20T13:54:14.925Z,2.08
2023-05-20T13:57:17.255Z,2.70
2023-05-20T14:00:19.683Z,2.42
2023-05-20T14:03:22.188Z,2.40
2023-05-20T14:06:24.926Z,2.53
2023-05-20T14:09:27.204Z,2.50
2023-05-20T14:12:29.594Z,2.83
2023-05-20T14:15:31.962Z,2.30
2023-05-20T14:18:34.207Z,2.33
2023-05-20T14:21:36.497Z,3.00
2023-05-20T14:24:38.730Z,2.22
2023-05-20T14:27:41.471Z,2.63
2023-05-20T14:30:43.751Z,2.63
2023-05-20T14:33:46.132Z,2.40
2023-05-20T14:36:48.468Z,2.42
2023-05-20T14:39:50.749Z,2.25
2023-05-20T14:42:53.118Z,2.80
2023-05-20T14:45:55.484Z,2.45
2023-05-20T14:48:57.885Z,2.30
2023-05-20T14:52:00.308Z,2.25
2023-05-20T14:55:02.643Z,3.05
2023-05-20T14:58:07.788Z,3.00
2023-05-20T15:01:10.060Z,2.30
2023-05-20T15:04:12.361Z,2.70
2023-05-20T15:07:15.320Z,2.70
2023-05-20T15:10:17.984Z,2.22
2023-05-20T15:13:20.343Z,2.13
2023-05-20T15:16:24.553Z,2.38
2023-05-20T15:19:26.978Z,2.50
2023-05-20T15:22:29.472Z,2.40
2023-05-20T15:25:31.806Z,2.40
2023-05-20T15:28:34.075Z,2.60
2023-05-20T15:31:36.353Z,2.60
2023-05-20T15:34:38.642Z,2.40
2023-05-20T15:37:41.207Z,2.53
2023-05-20T15:40:43.786Z,2.67
2023-05-20T15:43:46.137Z,2.28
2023-05-20T15:46:48.538Z,2.38
2023-05-20T15:49:50.975Z,2.40
2023-05-20T15:53:00.539Z,2.30
2023-05-20T15:56:03.116Z,2.63
2023-05-20T15:59:05.725Z,2.60
2023-05-20T16:02:08.090Z,2.40
2023-05-20T16:05:10.690Z,2.40
2023-05-20T16:08:12.984Z,2.45
2023-05-20T16:11:15.283Z,2.28
2023-05-20T16:14:17.543Z,2.28
2023-05-20T16:17:21.760Z,2.70
2023-05-20T16:20:24.080Z,2.63
2023-05-20T16:23:26.397Z,2.40
2023-05-20T16:26:31.542Z,2.40
2023-05-20T16:29:34.070Z,2.42
2023-05-20T16:32:36.417Z,2.25
2023-05-20T16:35:38.817Z,2.90
2023-05-20T16:38:41.126Z,2.05
2023-05-20T16:41:43.658Z,2.22
2023-05-20T16:44:46.371Z,2.50
2023-05-20T16:47:48.688Z,2.47
2023-05-20T16:50:51.004Z,2.30
2023-05-20T16:53:53.406Z,2.40
2023-05-20T16:56:55.770Z,2.10
2023-05-20T16:59:58.503Z,2.53
2023-05-20T17:03:00.830Z,2.08
2023-05-20T17:06:03.306Z,2.50
2023-05-20T17:09:07.164Z,2.50
2023-05-20T17:12:09.496Z,2.83
2023-05-20T17:15:11.773Z,2.08
2023-05-20T17:18:14.093Z,2.42
2023-05-20T17:21:20.287Z,2.43
2023-05-20T17:24:22.564Z,2.10
2023-05-20T17:27:24.815Z,2.50
2023-05-20T17:30:29.945Z,2.33
2023-05-20T17:33:32.317Z,2.17
2023-05-20T17:36:38.362Z,2.17
2023-05-20T17:39:43.061Z,2.10
2023-05-20T17:42:45.667Z,1.98
2023-05-20T17:45:48.502Z,1.80
2023-05-20T17:48:50.964Z,1.80
2023-05-20T17:51:53.197Z,1.80
2023-05-20T17:54:55.621Z,1.25
2023-05-20T17:57:58.027Z,1.13
2023-05-20T18:01:00.520Z,1.02
2023-05-20T18:04:05.871Z,1.50
2023-05-20T18:07:08.599Z,1.37
2023-05-20T18:10:11.777Z,1.17
2023-05-20T18:13:14.056Z,1.40
2023-05-20T18:16:16.470Z,1.30
2023-05-20T18:19:18.938Z,1.65
2023-05-20T18:22:21.381Z,1.40
2023-05-20T18:25:26.805Z,1.40
2023-05-20T18:28:29.089Z,1.75
2023-05-20T18:31:31.489Z,1.80
2023-05-20T18:34:34.698Z,1.95
2023-05-20T18:37:37.021Z,1.83
2023-05-20T18:40:39.324Z,1.83
2023-05-20T18:43:41.577Z,1.60
2023-05-20T18:46:43.927Z,1.75
2023-05-20T18:49:46.159Z,1.30
2023-05-20T18:52:48.449Z,1.73
2023-05-20T18:55:51.204Z,1.77
2023-05-20T18:58:53.598Z,1.92
2023-05-20T19:01:56.483Z,1.70
2023-05-20T19:04:58.725Z,2.13
2023-05-20T19:08:02.617Z,1.00
2023-05-20T19:11:04.965Z,2.00
2023-05-20T19:14:07.741Z,1.45
2023-05-20T19:17:10.163Z,1.88
2023-05-20T19:20:14.081Z,1.60
2023-05-20T19:23:16.649Z,1.30
2023-05-20T19:26:18.902Z,1.58
2023-05-20T19:29:21.225Z,1.83
2023-05-20T19:32:23.518Z,1.80
2023-05-20T19:35:26.021Z,1.85
2023-05-20T19:38:28.293Z,1.43
2023-05-20T19:41:30.575Z,1.40
2023-05-20T19:44:32.865Z,2.33
2023-05-20T19:47:35.156Z,2.00
2023-05-20T19:50:37.999Z,1.52
2023-05-20T19:53:40.274Z,1.73
2023-05-20T19:56:42.646Z,1.65
2023-05-20T19:59:45.078Z,2.00
2023-05-20T20:02:47.691Z,1.73
2023-05-20T20:05:50.463Z,2.17
2023-05-20T20:08:52.804Z,1.97
2023-05-20T20:11:55.107Z,1.92
2023-05-20T20:14:57.350Z,1.92
2023-05-20T20:18:01.299Z,2.00
2023-05-20T20:21:06.096Z,2.00
2023-05-20T20:24:08.384Z,1.67
2023-05-20T20:27:13.361Z,2.08
2023-05-20T20:30:15.937Z,1.73
2023-05-20T20:33:18.481Z,1.88
2023-05-20T20:36:20.806Z,1.63
2023-05-20T20:39:25.142Z,1.83
2023-05-20T20:42:27.975Z,1.95
2023-05-20T20:45:30.242Z,2.30
2023-05-20T20:48:32.718Z,1.73
2023-05-20T20:51:34.966Z,2.03
2023-05-20T20:54:40.185Z,1.70
2023-05-20T20:57:44.824Z,2.00
2023-05-20T21:00:48.780Z,2.03
2023-05-20T21:03:54.504Z,2.30
2023-05-20T21:06:59.556Z,2.20
2023-05-20T21:10:03.126Z,2.00
2023-05-20T21:13:08.193Z,1.85
2023-05-20T21:16:10.605Z,1.88
2023-05-20T21:19:12.947Z,2.13
2023-05-20T21:22:15.413Z,2.60
2023-05-20T21:25:17.830Z,3.90
2023-05-20T21:28:20.083Z,4.50
2023-05-20T21:31:22.383Z,4.93
2023-05-20T21:34:24.667Z,4.18
2023-05-20T21:37:26.948Z,3.70
2023-05-20T21:40:29.245Z,3.03
2023-05-20T21:43:31.530Z,2.85
2023-05-20T21:46:33.897Z,2.90
2023-05-20T21:49:36.230Z,2.67
2023-05-20T21:52:39.980Z,2.70
2023-05-20T21:55:42.282Z,1.80
2023-05-20T21:58:44.553Z,1.85
2023-05-20T22:01:46.934Z,1.52
2023-05-20T22:04:49.352Z,1.90
2023-05-20T22:07:53.032Z,1.90
2023-05-20T22:10:55.826Z,2.30
2023-05-20T22:13:59.732Z,2.00
2023-05-20T22:17:03.257Z,1.80
2023-05-20T22:20:10.527Z,1.90
2023-05-20T22:23:12.752Z,1.38
2023-05-20T22:26:15.038Z,2.00
2023-05-20T22:29:17.325Z,1.95
2023-05-20T22:32:19.592Z,1.60
2023-05-20T22:35:23.820Z,1.67
2023-05-20T22:38:26.178Z,2.20
2023-05-20T22:41:28.530Z,1.97
2023-05-20T22:44:30.920Z,1.48
2023-05-20T22:47:33.282Z,1.73
2023-05-20T22:50:35.654Z,2.20
2023-05-20T22:53:37.968Z,2.17
2023-05-20T22:56:40.218Z,2.07
2023-05-20T22:59:43.034Z,1.63
2023-05-20T23:02:49.780Z,1.48
2023-05-20T23:05:52.427Z,1.73
2023-05-20T23:08:54.765Z,1.67
2023-05-20T23:11:57.101Z,1.67
2023-05-20T23:14:59.380Z,1.45
2023-05-20T23:18:01.725Z,1.70
2023-05-20T23:21:04.302Z,1.58
2023-05-20T23:24:06.757Z,1.83
2023-05-20T23:27:09.181Z,1.97
2023-05-20T23:30:11.743Z,1.90
2023-05-20T23:33:14.986Z,1.67
2023-05-20T23:36:17.306Z,1.95
2023-05-20T23:39:19.604Z,1.65
2023-05-20T23:42:21.883Z,1.80
2023-05-20T23:45:24.194Z,2.10
2023-05-20T23:48:26.487Z,2.00
2023-05-20T23:51:28.808Z,1.80
2023-05-20T23:54:34.316Z,2.45
2023-05-20T23:57:36.939Z,2.03
